KEKO Airport (Elko Rgnl) Information

FAA: EKO - ICAO: KEKO

KEKO Airport Location

State Nevada
County Elko
City Elko
KEKO Airport is 1 miles west of Elko, NV.
Latitude 40-49-30.0000N
Longitude 115-47-28.8000W
Elevation 5,139ft

KEKO Airport METARs

METAR KEKO 281256Z AUTO 00000KT 10SM SCT055 OVC070 06/03 A3043 RMK AO2 SLP295 T00560028
Altimeter 30.43"
Temperature 5.6°C (42.1°F)
Wind 0° at 0KT
Clouds scattered at 5,500ft overcast at 7,000ft
Visibility 10.0mi
Time observed: 2021-10-28T12:56:00Z

KEKO Airport Details

Status Operational
Activation April 1940
Ownership Public
Usage Public
Chart SALT LAKE CITY
ATC on-site No
Beacon schedule sunset-sunrise
Beacon color clear green

KEKO Airport Contacts

Owner CITY OF ELKO
Owner address 975 TERMINAL WAY, ELKO, NV 89801
Owner phone 775-777-7190
Manager RAY SWANSON
Manager address P.O. BOX 1146, HANFORD, CA 93232
Manager phone 209-584-3217

KEKO Airport (Elko Rgnl) Radio Frequencies

KEKO (Airport) Radio Frequencies

UNICOM 123
Common traffic advisory frequency (CTAF) 123